Terminal Aerodrome Forecast
Issued by NWS

Home | Current Version | Previous Version | Graphics & Text | Print | Product List | Glossary On
Versions: 1 2 3 4 5 6 7 8 9 10 11 12 13 14 15 16
000
FTUS43 KGRB 231131
TAFAUW
TAF
KAUW 231131Z 2312/2412 VRB03KT P6SM SKC
     FM231600 22008KT P6SM SCT200
     FM232100 23010KT P6SM SCT060 BKN110
     FM240100 18003KT P6SM SCT050 BKN100=

USA.gov is the U.S. government's official web portal to all federal, state and local government web resources and services.